Weather observations for the past three days for
Cambridge Municipal Airport
Imperial (Metric)
Date Time (cdt) Wind (mph) Vis. (mi.) Weather Sky Cond. Temperature (ºF) Relative Humidity Wind Chill (°F) Heat Index (°F) Pressure Precipitation (in)
Air Dwpt 6 hour altimeter (in) sea level (mb) 1 hr 3 hr 6 hr
Max. Min.
03 21:15 E 12 10.00 Fair CLR 64.4 35.6 34% 29.75 0.0
03 20:55 NE 13 10.00 Fair CLR 64.4 35.6 34% 29.75 0.0
03 20:35 E 10 8.00 Fair CLR 66.2 33.8 30% 29.75 0.0
03 20:15 E 8 10.00 Fair CLR 69.8 33.8 27% 29.75 0.0
03 19:55 E 7 10.00 Fair CLR 73.4 33.8 23% 29.76 0.0
03 19:35 E 6 10.00 Fair CLR 75.2 32 21% 76 29.76 0.0
03 19:15 E 9 10.00 Fair CLR 77 32 19% 77 29.76 0.0
03 18:55 E 6 10.00 Fair CLR 77 32 19% 77 29.77 0.0
03 18:35 SE 7 9.00 Fair CLR 75.2 32 21% 76 29.78 0.0
03 18:15 E 9 10.00 Fair CLR 77 32 19% 77 29.78 0.0
03 17:55 E 8 10.00 Fair CLR 77 32 19% 77 29.79 0.0
03 17:35 Vrbl 7 G 18 10.00 Fair CLR 77 32 19% 77 29.79 0.0
03 17:15 E 7 G 16 10.00 Fair CLR 78.8 32 18% 78 29.79 0.0
03 16:55 E 6 G 14 10.00 Fair CLR 78.8 32 18% 78 29.79 0.0
03 16:35 E 10 10.00 Fair CLR 77 32 19% 77 29.8 0.0
03 16:15 E 7 G 16 10.00 Fair CLR 78.8 32 18% 78 29.81 0.0
03 15:55 SE 9 10.00 Fair CLR 77 30.2 18% 77 29.82 0.0
03 15:35 SE 10 10.00 Fair CLR 78.8 32 18% 78 29.83 0.0
03 15:15 Vrbl 6 G 16 10.00 Fair CLR 78.8 32 18% 78 29.84 0.0
03 14:55 NE 13 G 21 10.00 Fair CLR 78.8 32 18% 78 29.84 0.0
03 14:35 E 14 G 21 10.00 Fair CLR 77 33.8 21% 77 29.85 0.0
03 14:15 E 13 G 20 10.00 Fair CLR 77 32 19% 77 29.85 0.0
03 13:55 E 10 G 21 10.00 Fair CLR 77 32 19% 77 29.86 0.0
03 13:35 NE 14 G 21 10.00 Fair CLR 77 32 19% 77 29.87 0.0
03 13:15 E 13 G 21 10.00 Fair CLR 75.2 32 21% 76 29.89 0.0
03 12:55 E 14 10.00 Fair CLR 75.2 33.8 22% 76 29.9 0.0
03 12:35 E 16 10.00 Fair CLR 73.4 33.8 23% 29.91 0.0
03 12:15 E 16 10.00 Fair CLR 73.4 33.8 23% 29.92 0.0
03 11:55 E 15 G 24 10.00 Fair CLR 71.6 33.8 25% 29.93 0.0
03 11:35 E 14 G 21 10.00 Fair CLR 71.6 33.8 25% 29.93 0.0
03 11:15 E 17 10.00 Fair CLR 69.8 32 25% 29.94 0.0
03 10:55 NE 20 10.00 Fair CLR 69.8 32 25% 29.94 0.0
03 10:35 E 18 G 24 10.00 Fair CLR 69.8 32 25% 29.94 0.0
03 10:15 NE 20 G 26 10.00 Fair CLR 68 32 26% 29.94 0.0
03 09:55 NE 20 10.00 Fair CLR 66.2 32 28% 29.93 0.0
03 09:35 E 18 G 25 10.00 Fair CLR 66.2 33.8 30% 29.93 0.0
03 09:15 NE 18 G 25 10.00 Fair CLR 62.6 33.8 34% 29.93 0.0
03 08:55 NE 16 G 23 10.00 Fair CLR 60.8 33.8 36% 29.92 0.0
03 08:35 NE 12 10.00 Fair CLR 57.2 33.8 41% 29.92 0.0
03 08:15 NE 8 10.00 Fair CLR 51.8 33.8 50% 29.92 0.0
03 07:55 N 5 10.00 Fair CLR 48.2 33.8 58% 47 29.92 0.0
03 07:35 NW 10 10.00 Fair CLR 46.4 32 57% 42 29.91 0.0
03 07:15 NW 9 10.00 Fair CLR 46.4 32 57% 42 29.91 0.0
03 06:55 NW 6 10.00 Fair CLR 44.6 32 61% 42 29.9 0.0
03 06:35 W 6 10.00 Fair CLR 42.8 32 66% 40 29.89 0.0
03 06:15 SW 6 10.00 Fair CLR 46.4 32 57% 44 29.88 0.0
03 05:35 W 8 10.00 Fair CLR 46.4 32 57% 43 29.89 0.0
03 05:15 W 8 G 18 10.00 Fair CLR 50 32 50% 47 29.9 0.0
03 04:55 N 10 10.00 Fair CLR 46.4 32 57% 42 29.91 0.0
03 04:35 SW 9 10.00 Fair CLR 50 30.2 47% 47 29.9 0.0
03 04:15 W 8 10.00 Fair CLR 50 30.2 47% 47 29.9 0.0
03 03:55 SW 9 10.00 Fair CLR 51.8 30.2 44% 29.9 0.0
03 03:35 SW 12 G 17 10.00 Fair CLR 53.6 30.2 41% 29.9 0.0
03 03:15 SW 10 10.00 Fair CLR 53.6 32 44% 29.89 0.0
03 02:55 SW 10 10.00 Fair CLR 53.6 32 44% 29.9 0.0
03 02:35 SW 13 10.00 Fair CLR 53.6 33.8 47% 29.9 0.0
03 02:15 SW 7 10.00 Fair CLR 53.6 33.8 47% 29.9 0.0
03 01:55 SW 8 10.00 Fair CLR 53.6 35.6 51% 29.91 0.0
03 01:35 S 14 G 20 10.00 Fair CLR 55.4 35.6 47% 29.91 0.0
03 01:15 S 13 G 20 10.00 Fair CLR 57.2 33.8 41% 29.91 0.0
03 00:55 S 13 10.00 Fair CLR 57.2 33.8 41% 29.92 0.0
03 00:35 S 13 G 18 10.00 Fair CLR 59 33.8 39% 29.92 0.0
03 00:15 S 14 10.00 Fair CLR 59 32 36% 29.92 0.0
02 23:55 S 14 10.00 Fair CLR 59 32 36% 29.92 0.0
02 23:35 S 12 10.00 Fair CLR 59 32 36% 29.93 0.0
02 23:15 S 12 10.00 Fair CLR 59 32 36% 29.93 0.0
02 22:55 S 10 10.00 Fair CLR 59 32 36% 29.94 0.0
02 22:35 S 12 10.00 Fair CLR 60.8 33.8 36% 29.94 0.0
02 22:15 S 12 10.00 Fair CLR 60.8 33.8 36% 29.94 0.0
02 21:55 S 12 10.00 Fair CLR 60.8 32 34% 29.94 0.0
02 21:35 S 9 10.00 Fair CLR 62.6 30.2 30% 29.94 0.0
02 21:15 S 10 10.00 Fair CLR 64.4 30.2 28% 29.94 0.0
02 20:55 S 7 10.00 Fair CLR 66.2 28.4 24% 29.94 0.0
02 20:35 S 6 10.00 Fair CLR 68 28.4 23% 29.94 0.0
02 20:15 S 6 10.00 Fair CLR 69.8 28.4 21% 29.94 0.0
02 19:55 SW 6 10.00 Fair CLR 71.6 26.6 19% 29.94 0.0
02 19:35 W 6 10.00 Fair CLR 73.4 24.8 16% 29.95 0.0
02 19:15 W 10 10.00 Fair CLR 73.4 24.8 16% 29.95 0.0
02 18:55 W 7 G 14 10.00 Fair CLR 73.4 26.6 17% 29.96 0.0
02 18:35 W 8 G 16 10.00 Fair CLR 73.4 24.8 16% 29.97 0.0
02 18:15 W 12 10.00 Fair CLR 73.4 26.6 17% 29.97 0.0
02 17:55 W 10 10.00 Fair CLR 73.4 26.6 17% 29.97 0.0
02 17:35 SW 14 10.00 Fair CLR 73.4 28.4 19% 29.98 0.0
02 17:15 W 13 G 21 10.00 Fair CLR 73.4 28.4 19% 29.99 0.0
02 16:55 SW 16 G 22 10.00 Fair CLR 73.4 28.4 19% 30 0.0
02 16:35 SW 14 10.00 Fair CLR 71.6 26.6 19% 30.01 0.0
02 16:15 W 14 G 20 10.00 Fair CLR 71.6 26.6 19% 30.02 0.0
02 15:55 SW 7 G 20 10.00 Fair CLR 71.6 26.6 19% 30.04 0.0
02 15:35 W 10 G 18 10.00 Fair CLR 69.8 30.2 23% 30.05 0.0
02 15:15 W 10 G 21 10.00 Fair CLR 69.8 28.4 21% 30.06 0.0
02 14:55 SW 14 G 22 10.00 Fair CLR 69.8 30.2 23% 30.06 0.0
02 14:35 SW 12 G 21 10.00 Fair CLR 68 32 26% 30.08 0.0
02 14:15 SW 14 10.00 Fair CLR 66.2 32 28% 30.09 0.0
02 13:55 W 13 10.00 Fair CLR 66.2 32 28% 30.1 0.0
02 13:35 W 13 10.00 Fair CLR 66.2 32 28% 30.11 0.0
02 13:15 SW 13 10.00 Fair CLR 64.4 32 30% 30.12 0.0
02 12:55 SW 13 10.00 Fair CLR 62.6 32 32% 30.13 0.0
02 12:35 S 12 10.00 Fair CLR 62.6 32 32% 30.14 0.0
02 12:15 SW 9 G 20 10.00 Fair CLR 60.8 32 34% 30.15 0.0
02 11:55 SW 10 10.00 Fair CLR 60.8 32 34% 30.16 0.0
02 11:35 SW 5 G 14 10.00 Fair CLR 59 32 36% 30.17 0.0
02 11:15 S 9 G 15 10.00 Fair CLR 57.2 30.2 36% 30.17 0.0
02 10:55 Vrbl 5 G 14 10.00 Fair CLR 55.4 30.2 38% 30.18 0.0
02 10:35 SW 10 10.00 Fair CLR 55.4 30.2 38% 30.18 0.0
02 10:15 S 9 10.00 Fair CLR 53.6 28.4 38% 30.19 0.0
02 09:55 S 9 10.00 Fair CLR 53.6 28.4 38% 30.19 0.0
02 09:35 S 10 10.00 Fair CLR 50 30.2 47% 46 30.19 0.0
02 09:15 S 7 10.00 Fair CLR 46.4 32 57% 43 30.19 0.0
02 08:55 S 7 10.00 Fair CLR 44.6 32 61% 41 30.19 0.0
02 08:35 Vrbl 3 10.00 Fair CLR 42.8 30.2 61% 30.19 0.0
02 08:15 Calm 10.00 Fair CLR 41 30.2 66% 30.19 0.0
02 07:55 Calm 10.00 Fair CLR 35.6 32 87% 30.19 0.0
02 07:35 Calm 10.00 Fair CLR 35.6 30.2 81% 30.19 0.0
02 07:15 Calm 10.00 Fair CLR 37.4 26.6 65% 30.19 0.0
02 06:55 Calm 10.00 Fair CLR 35.6 28.4 75% 30.18 0.0
02 06:35 NE 5 10.00 Fair CLR 35.6 28.4 75% 32 30.18 0.0
02 06:10 NE 5 10.00 Fair CLR 37.4 28.4 70% 34 30.18 0.0
02 05:55 NE 5 10.00 Fair CLR 35.6 28.4 75% 32 30.18 0.0
02 05:35 NE 5 10.00 Fair CLR 39.2 28.4 65% 36 30.18 0.0
02 05:15 NE 5 10.00 Fair CLR 39.2 28.4 65% 36 30.18 0.0
02 04:55 NE 5 10.00 Fair CLR 37.4 28.4 70% 34 30.18 0.0
02 04:35 NE 5 10.00 Fair CLR 39.2 28.4 65% 36 30.18 0.0
02 04:15 NE 6 10.00 Fair CLR 39.2 30.2 70% 36 30.18 0.0
02 03:55 Calm 10.00 Fair CLR 37.4 30.2 75% 30.18 0.0
02 03:35 NE 5 10.00 Fair CLR 37.4 30.2 75% 34 30.17 0.0
02 03:15 NE 6 10.00 Fair CLR 41 32 70% 38 30.17 0.0
02 02:55 Calm 10.00 A Few Clouds FEW095 39.2 32 75% 30.17 0.0
02 02:15 NE 7 10.00 Mostly Cloudy BKN090 BKN110 41 33.8 76% 37 30.17 0.0
02 01:55 NE 7 10.00 Overcast BKN090 OVC110 42.8 35.6 76% 39 30.17 0.0
02 01:35 NE 9 10.00 Overcast FEW075 SCT090 OVC110 44.6 35.6 71% 40 30.17 0.0
02 01:15 N 9 10.00 Overcast OVC100 44.6 35.6 71% 40 30.16 0.0
02 00:55 NE 6 10.00 Overcast BKN090 OVC110 44.6 33.8 66% 42 30.15 0.0
02 00:35 NE 6 10.00 Overcast SCT080 OVC100 44.6 33.8 66% 42 30.15 0.0
02 00:15 E 5 10.00 Mostly Cloudy FEW050 SCT070 BKN075 46.4 33.8 62% 45 30.14 0.0
01 23:55 E 9 10.00 Overcast SCT065 BKN075 OVC090 48.2 33.8 58% 45 30.13 0.0
01 23:35 E 10 10.00 Overcast FEW065 BKN080 OVC100 46.4 33.8 62% 42 30.13 0.0
01 23:15 E 8 10.00 Overcast FEW060 FEW075 OVC100 48.2 33.8 58% 45 30.12 0.0
01 22:55 NE 9 10.00 Overcast BKN090 OVC110 48.2 33.8 58% 45 30.12 0.0
01 22:35 NE 9 10.00 Overcast FEW080 OVC095 50 33.8 54% 47 30.11 0.0
01 22:15 E 8 10.00 Overcast SCT080 OVC090 51.8 32 47% 30.1 0.0
01 21:55 E 8 10.00 Overcast SCT080 OVC095 51.8 32 47% 30.1 0.0
01 21:35 E 13 10.00 Overcast FEW075 OVC100 53.6 32 44% 30.09 0.0
01 21:15 NE 13 10.00 Overcast SCT060 BKN070 OVC110 53.6 32 44% 30.08 0.0
01 20:55 NE 12 10.00 Overcast OVC070 55.4 32 41% 30.09 0.0
01 20:35 NE 13 G 22 10.00 Overcast FEW065 BKN075 OVC090 55.4 30.2 38% 30.07 0.0
01 20:15 NE 21 10.00 Overcast and Breezy FEW065 SCT075 OVC095 57.2 30.2 36% 30.06 0.0
01 19:55 NE 18 10.00 Overcast SCT080 OVC100 59 26.6 29% 30.06 0.0
01 19:35 NE 12 10.00 Overcast FEW065 BKN085 OVC100 60.8 26.6 27% 30.05 0.0
01 19:15 N 8 10.00 Overcast SCT065 OVC080 62.6 26.6 25% 30.05 0.0
01 18:55 Calm 10.00 Mostly Cloudy SCT070 BKN080 BKN100 60.8 24.8 25% 30.05 0.0
01 18:35 N 6 10.00 Mostly Cloudy BKN100 62.6 24.8 24% 30.04 0.0
01 18:15 E 5 10.00 A Few Clouds FEW095 62.6 24.8 24% 30.04 0.0
01 17:55 NE 10 G 16 10.00 Partly Cloudy SCT090 SCT110 62.6 26.6 25% 30.04 0.0
01 17:35 NE 8 G 15 10.00 Mostly Cloudy FEW070 BKN080 BKN100 62.6 26.6 25% 30.04 0.0
01 17:15 E 8 10.00 Mostly Cloudy BKN095 62.6 26.6 25% 30.04 0.0
01 16:55 NE 7 G 14 10.00 Partly Cloudy SCT090 SCT110 62.6 28.4 27% 30.04 0.0
01 16:35 NE 13 G 22 10.00 Partly Cloudy FEW085 SCT110 62.6 28.4 27% 30.05 0.0
01 16:15 N 8 10.00 Partly Cloudy SCT100 62.6 26.6 25% 30.05 0.0
01 15:55 NE 13 G 23 10.00 Mostly Cloudy BKN110 62.6 30.2 30% 30.05 0.0
01 15:35 Vrbl 6 G 20 10.00 Partly Cloudy FEW080 SCT110 62.6 26.6 25% 30.06 0.0
01 15:15 NE 15 10.00 Mostly Cloudy BKN080 BKN095 64.4 28.4 26% 30.06 0.0
01 14:55 Vrbl 7 G 20 10.00 Mostly Cloudy SCT085 BKN100 64.4 28.4 26% 30.05 0.0
01 14:35 N 5 G 12 10.00 Partly Cloudy FEW080 SCT100 62.6 28.4 27% 30.06 0.0
01 14:15 E 5 G 16 10.00 Mostly Cloudy BKN085 BKN100 62.6 26.6 25% 30.06 0.0
01 13:55 Vrbl 6 G 13 10.00 Mostly Cloudy FEW075 BKN085 62.6 28.4 27% 30.06 0.0
01 13:35 N 12 10.00 Partly Cloudy FEW080 SCT090 62.6 28.4 27% 30.06 0.0
01 13:15 N 10 10.00 Fair CLR 62.6 28.4 27% 30.07 0.0
01 12:55 NE 9 G 16 10.00 Fair CLR 62.6 30.2 30% 30.07 0.0
01 12:35 NE 8 G 15 10.00 Fair CLR 60.8 28.4 29% 30.08 0.0
01 12:15 N 6 G 14 10.00 Fair CLR 60.8 32 34% 30.08 0.0
01 11:55 NW 7 10.00 Fair CLR 60.8 32 34% 30.08 0.0
01 11:35 Calm 10.00 Fair CLR 59 35.6 42% 30.08 0.0
01 11:15 W 3 10.00 Fair CLR 57.2 39.2 51% 30.08 0.0
01 10:55 W 7 10.00 Fair CLR 55.4 41 59% 30.08 0.0
01 10:35 SW 9 10.00 Fair CLR 53.6 42.8 67% 30.08 0.0
01 10:15 W 9 10.00 Partly Cloudy SCT095 50 41 71% 47 30.09 0.0
01 09:55 W 9 10.00 Overcast OVC090 50 41 71% 47 30.09 0.0
01 09:35 SW 10 10.00 Overcast OVC095 48.2 41 76% 44 30.09 0.0
01 09:15 SW 9 10.00 Mostly Cloudy BKN090 48.2 39.2 71% 45 30.09 0.0
01 08:55 SW 10 10.00 Partly Cloudy SCT090 46.4 39.2 76% 42 30.1 0.0
01 08:35 SW 10 10.00 A Few Clouds FEW090 44.6 41 87% 40 30.1 0.0
01 08:15 SW 7 10.00 Mostly Cloudy BKN090 41 39.2 93% 37 30.1 0.0
01 07:55 W 6 10.00 A Few Clouds FEW090 41 37.4 87% 38 30.1 0.0
01 07:35 W 6 10.00 Fair CLR 39.2 37.4 93% 36 30.11 0.0
01 07:15 W 6 10.00 A Few Clouds FEW070 FEW100 37.4 35.6 93% 33 30.1 0.0
01 06:55 W 6 10.00 Partly Cloudy SCT095 35.6 33.8 93% 31 30.1 0.0
01 06:35 W 6 10.00 Mostly Cloudy BKN095 35.6 33.8 93% 31 30.1 0.0
01 06:15 W 6 10.00 Partly Cloudy SCT090 35.6 33.8 93% 31 30.1 0.0
01 05:55 W 7 10.00 Mostly Cloudy BKN095 35.6 33.8 93% 31 30.1 0.0
01 05:35 W 8 10.00 Partly Cloudy SCT095 35.6 33.8 93% 30 30.11 0.0
01 05:15 W 7 10.00 Fair CLR 37.4 33.8 87% 33 30.11 0.0
01 04:55 W 7 10.00 Fair CLR 37.4 33.8 87% 33 30.11 0.0
01 04:35 W 6 10.00 Fair CLR 37.4 33.8 87% 33 30.11 0.0
01 04:15 W 5 10.00 Fair CLR 39.2 33.8 81% 36 30.11 0.0
01 03:55 SW 6 10.00 Fair CLR 39.2 35.6 87% 36 30.11 0.0
01 03:35 W 6 10.00 Fair CLR 37.4 33.8 87% 33 30.12 0.0
01 03:15 W 6 10.00 Partly Cloudy SCT095 39.2 35.6 87% 36 30.12 0.0
01 02:55 W 5 10.00 Overcast OVC095 39.2 33.8 81% 36 30.12 0.0
01 02:30 SW 6 10.00 Overcast OVC095 39.2 35.6 87% 36 30.13 0.0
01 02:15 W 5 10.00 Overcast OVC095 41 33.8 76% 38 30.13 0.0
01 01:55 SW 3 10.00 Overcast OVC095 41 35.6 81% 30.13 0.0
01 01:35 SW 6 10.00 Overcast OVC095 41 35.6 81% 38 30.14 0.0
01 01:15 SW 7 10.00 Overcast OVC095 41 33.8 76% 37 30.14 0.0
01 00:55 SW 6 10.00 Partly Cloudy SCT100 41 33.8 76% 38 30.14 0.0
01 00:35 S 5 10.00 Fair CLR 39.2 35.6 87% 36 30.14 0.0
30 23:55 SE 6 10.00 Fair CLR 42.8 33.8 71% 40 30.14 0.0
30 23:35 E 5 10.00 Fair CLR 41 33.8 76% 38 30.14 0.0
30 23:15 E 6 10.00 Fair CLR 41 33.8 76% 38 30.14 0.0
30 22:55 E 8 10.00 Fair CLR 41 33.8 76% 36 30.14 0.0
30 22:35 E 8 10.00 Fair CLR 41 33.8 76% 36 30.13 0.0
30 22:15 E 8 10.00 Fair CLR 42.8 33.8 71% 39 30.13 0.0
30 21:55 E 9 10.00 Fair CLR 44.6 33.8 66% 40 30.12 0.0
30 21:35 NE 10 10.00 Fair CLR 46.4 33.8 62% 42 30.11 0.0
Date Time (cdt) Wind (mph) Vis. (mi.) Weather Sky Cond. Air Dwpt Max. Min. Relative Humidity Wind Chill (°F) Heat Index (°F) altimeter (in) sea level (mb) 1 hr 3 hr 6 hr
6 hour
Temperature (ºF) Pressure Precipitation (in)